Ana Sayfa
METAR-TAF:

METAR-TAF

Havaalanları :

Mykonos, Yunanistan

Enlem: 37-26-09N, Boylam: 025-20-45E, yükseklik: 123 m

Güncel hava durumu gözlemi

Rapor saat 17:50 UTC de 4 saat ve 36 dakika önce yapıldı.
Rüzgar kuzeydan 11 kt
Sıcaklık 13°C
Nem 77%
Basınç 1009 hPa
Görüş mesafesi 10 km veya daha fazla
2000 ft yükseklikte parçalı bulutlu

METAR: LGMK 231750Z 36011KT 9999 SCT020 13/09 Q1009

Saat: 00:26 (22:26 UTC)

Tahmin

Rapor saat 20:00 UTC de 2 saat ve 26 dakika önce yapıldı.
Ayın 23'si saat 21 UTC'den ayın 24'si saat 06 UTC'ye kadar geçerli Tahmin
Rüzgar kuzey/kuzeydoğudan 12 kt
Görüş mesafesi 10 km veya daha fazla
1800 ft yükseklikte az bulutlu
2000 ft yükseklikte parçalı bulutlu
Dönüşüyor
ayın 24'si saat 01 UTC'den ayın 24'si saat 03 UTC'ye kadar
Rüzgar güneydoğudan 15 kt

TAF: LGMK 232000Z 2321/2406 03012KT 9999 FEW018 SCT020 BECMG 2401/2403 14015KT

4.000'den fazla havaalanı için hava durumu gözlemleri ve tahminleri (METAR ve TAF raporları).

Kullanılabilir istasyonlar harita üzerinde sarı ve kırmızı noktalarla gösterilir.

İstasyonun adını görmek için fareyi noktanın üzerinde gezdirin.

Sonrasında hava gözlem ve tahminlerini görmek için tıklayın.

Haritayı değiştirmek için: yaklaştırmak için siyah artı işaretli yeşil düğmeye ve uzaklaştırmak için de eksi işaretli düğmeye hızla tıklayın; bitişik haritalar için yeşil okları kullanın.


METAR-TAF: